Terminal Aerodrome Forecast
Issued by NWS Pocatello, ID

Home | Current Version | Previous Version | Text Only | Print | Product List | Glossary On
Versions: 1 2 3 4 5 6 7 8 9 10 11 12 13 14 15 16 17 18
000
FTUS45 KPIH 290200 AAA
TAFBYI
TAF AMD
KBYI 290203Z 2902/2924 24010KT P6SM SCT030
     FM290800 24011KT P6SM BKN025 OVC035
      TEMPO 2908/2912 6SM -SN OVC015
     FM291200 24008KT P6SM OVC015
     FM292100 06009KT P6SM OVC025=

USA.gov is the U.S. government's official web portal to all federal, state and local government web resources and services.